createdAt,value
2022-09-09T00:01:44.788Z,75.31
2022-09-09T00:03:57.158Z,76.25
2022-09-09T00:06:08.414Z,75.64
2022-09-09T00:08:20.511Z,76.19
2022-09-09T00:10:29.969Z,76.24
2022-09-09T00:12:40.438Z,76.53
2022-09-09T00:14:52.898Z,76.81
2022-09-09T00:17:00.994Z,75.48
2022-09-09T00:19:08.368Z,76.02
2022-09-09T00:21:17.275Z,76.51
2022-09-09T00:23:27.320Z,76.46
2022-09-09T00:25:37.831Z,76.76
2022-09-09T00:27:46.595Z,76.87
2022-09-09T00:29:55.883Z,76.72
2022-09-09T00:32:11.037Z,76.83
2022-09-09T00:34:17.387Z,76.46
2022-09-09T00:36:23.879Z,76.19
2022-09-09T00:38:34.911Z,76.19
2022-09-09T00:40:46.945Z,75.31
2022-09-09T00:43:01.914Z,75.38
2022-09-09T00:45:21.021Z,74.52
2022-09-09T00:47:45.570Z,74.46
2022-09-09T00:50:02.390Z,74.28
2022-09-09T00:52:20.366Z,73.68
2022-09-09T00:54:38.713Z,73.25
2022-09-09T00:56:48.080Z,73.08
2022-09-09T00:58:59.731Z,73.16
2022-09-09T01:01:08.593Z,73.50
2022-09-09T01:03:35.309Z,72.88
2022-09-09T01:05:47.386Z,72.08
2022-09-09T01:07:55.109Z,71.93
2022-09-09T01:10:06.266Z,71.91
2022-09-09T01:12:16.399Z,72.24
2022-09-09T01:14:34.468Z,71.65
2022-09-09T01:16:41.310Z,72.17
2022-09-09T01:18:51.315Z,72.61
2022-09-09T01:21:05.106Z,73.09
2022-09-09T01:23:28.210Z,72.44
2022-09-09T01:26:13.961Z,72.62
2022-09-09T01:28:23.159Z,72.29
2022-09-09T01:30:29.891Z,72.64
2022-09-09T01:32:43.066Z,72.06
2022-09-09T01:34:47.472Z,72.26
2022-09-09T01:36:57.504Z,71.12
2022-09-09T01:39:01.802Z,70.65
2022-09-09T01:41:05.769Z,69.19
2022-09-09T01:43:31.981Z,69.94
2022-09-09T01:45:35.885Z,69.64
2022-09-09T01:47:40.173Z,70.13
2022-09-09T01:49:56.037Z,70.59
2022-09-09T01:52:03.642Z,70.44
2022-09-09T01:54:12.618Z,70.08
2022-09-09T01:56:27.097Z,70.36
2022-09-09T01:58:39.796Z,70.53
2022-09-09T02:00:50.250Z,70.90
2022-09-09T02:03:02.858Z,70.82
2022-09-09T02:05:32.986Z,70.71
2022-09-09T02:07:41.978Z,71.11
2022-09-09T02:10:03.974Z,71.85
2022-09-09T02:12:13.879Z,71.63
2022-09-09T02:14:30.141Z,71.42
2022-09-09T02:16:40.347Z,71.44
2022-09-09T02:18:50.251Z,71.42
2022-09-09T02:20:58.682Z,71.37
2022-09-09T02:23:03.413Z,71.61
2022-09-09T02:25:10.761Z,72.35
2022-09-09T02:27:17.319Z,71.99
2022-09-09T02:29:27.523Z,71.78
2022-09-09T02:31:31.187Z,72.14
2022-09-09T02:33:44.289Z,71.52
2022-09-09T02:35:49.000Z,71.10
2022-09-09T02:38:00.862Z,71.56
2022-09-09T02:40:04.959Z,71.90
2022-09-09T02:42:10.375Z,72.10
2022-09-09T02:44:17.931Z,71.96
2022-09-09T02:46:36.368Z,72.35
2022-09-09T02:48:50.756Z,72.58
2022-09-09T02:51:02.901Z,72.42
2022-09-09T02:53:17.718Z,72.30
2022-09-09T02:55:31.198Z,71.60
2022-09-09T02:57:37.074Z,72.07
2022-09-09T02:59:42.725Z,72.28
2022-09-09T03:01:47.928Z,72.75
2022-09-09T03:03:51.535Z,72.23
2022-09-09T03:05:55.421Z,72.25
2022-09-09T03:07:58.748Z,71.98
2022-09-09T03:10:02.447Z,71.78
2022-09-09T03:12:07.618Z,71.81
2022-09-09T03:14:12.276Z,71.80
2022-09-09T03:16:16.016Z,72.15
2022-09-09T03:18:24.515Z,71.96
2022-09-09T03:20:31.972Z,72.41
2022-09-09T03:22:36.028Z,72.25
2022-09-09T03:24:40.009Z,72.52
2022-09-09T03:26:45.617Z,72.47
2022-09-09T03:28:52.656Z,72.46
2022-09-09T03:31:00.770Z,72.06
2022-09-09T03:33:04.848Z,72.07
2022-09-09T03:35:11.833Z,72.14
2022-09-09T03:37:15.200Z,72.07
2022-09-09T03:39:18.546Z,72.37
2022-09-09T03:41:24.892Z,72.44
2022-09-09T03:43:30.086Z,72.21
2022-09-09T03:45:33.920Z,72.27
2022-09-09T03:47:37.474Z,72.35
2022-09-09T03:49:42.939Z,72.62
2022-09-09T03:51:47.611Z,72.18
2022-09-09T03:53:51.717Z,72.55
2022-09-09T03:55:56.956Z,72.45
2022-09-09T03:58:03.097Z,72.56
2022-09-09T04:00:08.565Z,72.79
2022-09-09T04:02:22.530Z,73.05
2022-09-09T04:04:26.970Z,72.99
2022-09-09T04:06:31.332Z,73.11
2022-09-09T04:08:37.215Z,73.01
2022-09-09T04:10:41.286Z,73.50
2022-09-09T04:12:47.794Z,73.45
2022-09-09T04:14:58.087Z,73.23
2022-09-09T04:17:07.244Z,73.51
2022-09-09T04:19:13.366Z,73.53
2022-09-09T04:21:18.496Z,73.66
2022-09-09T04:23:22.633Z,73.96
2022-09-09T04:25:27.679Z,73.72
2022-09-09T04:27:31.126Z,73.86
2022-09-09T04:29:35.250Z,73.53
2022-09-09T04:31:42.836Z,73.19
2022-09-09T04:33:47.490Z,72.99
2022-09-09T04:35:54.658Z,73.23
2022-09-09T04:37:59.743Z,73.47
2022-09-09T04:40:04.990Z,73.61
2022-09-09T04:42:10.534Z,73.96
2022-09-09T04:44:13.852Z,74.18
2022-09-09T04:46:18.141Z,74.00
2022-09-09T04:48:22.808Z,73.61
2022-09-09T04:50:27.096Z,74.05
2022-09-09T04:52:36.355Z,73.82
2022-09-09T04:54:39.921Z,73.87
2022-09-09T04:56:44.255Z,74.42
2022-09-09T04:58:49.814Z,74.44
2022-09-09T05:00:54.366Z,74.57
2022-09-09T05:02:58.225Z,74.62
2022-09-09T05:05:02.070Z,74.58
2022-09-09T05:07:05.528Z,74.42
2022-09-09T05:09:08.955Z,74.60
2022-09-09T05:11:18.127Z,74.25
2022-09-09T05:13:21.840Z,74.18
2022-09-09T05:15:26.527Z,74.12
2022-09-09T05:17:30.020Z,74.41
2022-09-09T05:19:33.360Z,74.35
2022-09-09T05:21:36.691Z,74.69
2022-09-09T05:23:40.668Z,74.54
2022-09-09T05:25:44.522Z,74.55
2022-09-09T05:27:47.867Z,74.42
2022-09-09T05:29:51.835Z,74.74
2022-09-09T05:31:56.613Z,74.93
2022-09-09T05:34:00.139Z,75.07
2022-09-09T05:36:05.930Z,75.18
2022-09-09T05:38:09.357Z,75.27
2022-09-09T05:40:13.502Z,75.25
2022-09-09T05:42:17.635Z,75.60
2022-09-09T05:44:21.598Z,75.88
2022-09-09T05:46:26.195Z,75.51
2022-09-09T05:48:33.483Z,75.73
2022-09-09T05:50:36.851Z,75.53
2022-09-09T05:52:40.258Z,75.90
2022-09-09T05:54:44.884Z,76.04
2022-09-09T05:56:51.868Z,76.16
2022-09-09T05:58:57.638Z,76.02
2022-09-09T06:01:06.284Z,76.22
2022-09-09T06:03:12.496Z,76.33
2022-09-09T06:05:17.895Z,76.58
2022-09-09T06:07:21.361Z,76.34
2022-09-09T06:09:24.992Z,76.54
2022-09-09T06:11:31.924Z,76.40
2022-09-09T06:13:38.189Z,76.11
2022-09-09T06:15:52.137Z,75.96
2022-09-09T06:17:57.221Z,76.21
2022-09-09T06:20:00.651Z,76.35
2022-09-09T06:22:06.331Z,76.22
2022-09-09T06:24:14.768Z,76.12
2022-09-09T06:26:20.757Z,75.51
2022-09-09T06:28:26.077Z,75.86
2022-09-09T06:30:31.039Z,75.91
2022-09-09T06:32:35.533Z,75.87
2022-09-09T06:34:39.014Z,75.71
2022-09-09T06:36:42.563Z,75.65
2022-09-09T06:38:47.832Z,75.53
2022-09-09T06:40:55.835Z,75.42
2022-09-09T06:43:02.169Z,74.83
2022-09-09T06:45:13.062Z,73.32
2022-09-09T06:47:25.681Z,73.28
2022-09-09T06:49:29.991Z,72.17
2022-09-09T06:51:36.367Z,72.37
2022-09-09T06:53:43.070Z,72.03
2022-09-09T06:55:49.379Z,72.25
2022-09-09T06:57:53.241Z,72.26
2022-09-09T07:00:00.249Z,71.15
2022-09-09T07:02:04.130Z,70.71
2022-09-09T07:04:09.869Z,70.55
2022-09-09T07:06:17.956Z,70.69
2022-09-09T07:08:22.875Z,70.20
2022-09-09T07:10:26.676Z,69.52
2022-09-09T07:12:31.454Z,70.10
2022-09-09T07:14:38.538Z,69.73
2022-09-09T07:16:45.458Z,69.42
2022-09-09T07:18:51.557Z,69.29
2022-09-09T07:20:57.112Z,68.44
2022-09-09T07:23:01.740Z,68.00
2022-09-09T07:25:07.011Z,68.43
2022-09-09T07:27:10.704Z,68.11
2022-09-09T07:29:20.440Z,67.53
2022-09-09T07:31:27.115Z,67.13
2022-09-09T07:33:32.322Z,66.91
2022-09-09T07:35:36.398Z,66.76
2022-09-09T07:37:39.807Z,67.40
2022-09-09T07:39:43.288Z,67.14
2022-09-09T07:41:48.599Z,66.89
2022-09-09T07:43:55.779Z,66.46
2022-09-09T07:46:03.045Z,65.37
2022-09-09T07:48:07.577Z,64.82
2022-09-09T07:50:12.653Z,64.78
2022-09-09T07:52:18.280Z,64.86
2022-09-09T07:54:27.151Z,65.29
2022-09-09T07:56:33.526Z,65.21
2022-09-09T07:58:38.716Z,64.55
2022-09-09T08:00:44.610Z,64.61
2022-09-09T08:02:49.536Z,63.83
2022-09-09T08:04:53.591Z,64.44
2022-09-09T08:07:00.848Z,64.20
2022-09-09T08:09:06.394Z,63.99
2022-09-09T08:11:12.872Z,63.86
2022-09-09T08:13:18.186Z,63.90
2022-09-09T08:15:22.898Z,63.07
2022-09-09T08:17:26.368Z,63.15
2022-09-09T08:19:31.958Z,62.58
2022-09-09T08:21:39.932Z,62.76
2022-09-09T08:23:44.502Z,62.37
2022-09-09T08:25:49.838Z,61.20
2022-09-09T08:27:55.169Z,61.68
2022-09-09T08:29:58.926Z,60.96
2022-09-09T08:32:03.258Z,60.40
2022-09-09T08:34:08.225Z,60.63
2022-09-09T08:36:16.222Z,60.33
2022-09-09T08:38:19.731Z,60.63
2022-09-09T08:40:31.191Z,60.67
2022-09-09T08:42:43.257Z,60.59
2022-09-09T08:45:08.054Z,59.77
2022-09-09T08:47:23.617Z,59.83
2022-09-09T08:49:54.748Z,59.49
2022-09-09T08:51:59.865Z,59.63
2022-09-09T08:54:05.316Z,60.20
2022-09-09T08:56:16.212Z,59.89
2022-09-09T08:58:25.814Z,59.35
2022-09-09T09:00:39.228Z,58.50
2022-09-09T09:02:58.370Z,59.03
2022-09-09T09:05:15.934Z,58.73
2022-09-09T09:07:34.754Z,58.04
2022-09-09T09:09:46.240Z,57.49
2022-09-09T09:11:52.608Z,57.31
2022-09-09T09:14:00.026Z,57.64
2022-09-09T09:16:15.558Z,56.78
2022-09-09T09:18:19.568Z,56.55
2022-09-09T09:20:34.224Z,55.28
2022-09-09T09:22:48.858Z,54.88
2022-09-09T09:24:56.513Z,55.29
2022-09-09T09:27:09.784Z,54.97
2022-09-09T09:29:16.352Z,54.96
2022-09-09T09:31:22.947Z,54.79
2022-09-09T09:33:32.532Z,55.14
2022-09-09T09:35:40.485Z,54.69
2022-09-09T09:40:13.851Z,55.50
2022-09-09T09:42:21.702Z,55.37
2022-09-09T09:44:30.381Z,54.77
2022-09-09T09:46:39.786Z,55.38
2022-09-09T09:48:58.889Z,55.77
2022-09-09T09:51:11.423Z,55.82
2022-09-09T09:53:24.728Z,56.39
2022-09-09T09:55:32.802Z,56.39
2022-09-09T09:57:37.779Z,57.21
2022-09-09T09:59:45.928Z,57.50
2022-09-09T10:01:55.213Z,57.72
2022-09-09T10:04:02.590Z,57.57
2022-09-09T10:06:08.298Z,57.33
2022-09-09T10:08:15.184Z,57.35
2022-09-09T10:10:27.702Z,57.36
2022-09-09T10:12:46.045Z,57.46
2022-09-09T10:15:03.708Z,56.53
2022-09-09T10:17:19.157Z,56.73
2022-09-09T10:19:31.750Z,56.85
2022-09-09T10:22:04.332Z,56.09
2022-09-09T10:24:28.380Z,55.24
2022-09-09T10:26:42.171Z,55.25
2022-09-09T10:29:02.534Z,55.37
2022-09-09T10:31:18.687Z,54.95
2022-09-09T10:33:34.616Z,55.20
2022-09-09T10:35:47.119Z,56.25
2022-09-09T10:38:12.709Z,55.48
2022-09-09T10:40:31.456Z,55.51
2022-09-09T10:42:37.372Z,55.31
2022-09-09T10:44:55.883Z,55.14
2022-09-09T10:47:27.900Z,55.15
2022-09-09T10:49:50.640Z,55.25
2022-09-09T10:52:01.169Z,55.53
2022-09-09T10:54:16.749Z,55.99
2022-09-09T10:56:24.615Z,55.68
2022-09-09T10:58:35.325Z,54.53
2022-09-09T11:00:42.578Z,54.20
2022-09-09T11:02:45.925Z,52.87
2022-09-09T11:04:56.895Z,52.95
2022-09-09T11:07:08.526Z,53.11
2022-09-09T11:09:19.573Z,53.97
2022-09-09T11:11:31.241Z,54.06
2022-09-09T11:13:42.192Z,54.32
2022-09-09T11:15:48.831Z,53.39
2022-09-09T11:17:56.058Z,53.64
2022-09-09T11:19:59.601Z,54.22
2022-09-09T11:22:05.834Z,54.54
2022-09-09T11:24:20.146Z,55.26
2022-09-09T11:26:33.535Z,54.86
2022-09-09T11:29:02.806Z,54.71
2022-09-09T11:31:32.122Z,54.78
2022-09-09T11:34:00.182Z,55.74
2022-09-09T11:36:33.342Z,55.70
2022-09-09T11:38:43.674Z,54.23
2022-09-09T11:40:48.529Z,54.57
2022-09-09T11:43:05.406Z,54.23
2022-09-09T11:45:24.718Z,53.14
2022-09-09T11:47:31.313Z,53.77
2022-09-09T11:49:44.341Z,53.48
2022-09-09T11:51:47.679Z,52.67
2022-09-09T11:53:53.572Z,52.98
2022-09-09T11:56:12.191Z,52.55
2022-09-09T11:58:20.358Z,53.39
2022-09-09T12:00:38.014Z,52.94
2022-09-09T12:02:51.627Z,53.40
2022-09-09T12:05:02.659Z,53.47
2022-09-09T12:07:23.763Z,53.62
2022-09-09T12:09:33.782Z,53.45
2022-09-09T12:11:38.153Z,53.77
2022-09-09T12:13:42.825Z,53.68
2022-09-09T12:15:51.782Z,53.87
2022-09-09T12:18:02.129Z,53.92
2022-09-09T12:20:15.538Z,53.73
2022-09-09T12:22:28.315Z,53.92
2022-09-09T12:24:39.439Z,53.78
2022-09-09T12:26:49.931Z,54.26
2022-09-09T12:29:04.321Z,54.06
2022-09-09T12:31:18.852Z,54.22
2022-09-09T12:33:22.822Z,54.45
2022-09-09T12:35:30.846Z,55.38
2022-09-09T12:37:37.787Z,55.12
2022-09-09T12:39:47.405Z,53.99
2022-09-09T12:41:58.311Z,54.01
2022-09-09T12:44:06.847Z,53.37
2022-09-09T12:46:23.095Z,54.31
2022-09-09T12:48:37.662Z,53.19
2022-09-09T12:50:48.115Z,53.34
2022-09-09T12:52:54.308Z,54.18
2022-09-09T12:54:59.087Z,56.16
2022-09-09T12:57:02.527Z,64.18
2022-09-09T12:59:05.962Z,68.36
2022-09-09T13:01:23.771Z,72.29
2022-09-09T13:03:28.524Z,73.24
2022-09-09T13:05:37.889Z,73.84
2022-09-09T13:07:41.252Z,74.16
2022-09-09T13:09:45.464Z,72.64
2022-09-09T13:11:52.403Z,72.53
2022-09-09T13:13:58.087Z,72.36
2022-09-09T13:16:03.415Z,72.98
2022-09-09T13:18:13.577Z,73.18
2022-09-09T13:20:19.547Z,71.69
2022-09-09T13:22:28.610Z,72.15
2022-09-09T13:24:34.508Z,71.61
2022-09-09T13:26:39.539Z,70.78
2022-09-09T13:28:42.793Z,70.87
2022-09-09T13:31:03.961Z,70.37
2022-09-09T13:33:24.134Z,70.16
2022-09-09T13:35:27.642Z,70.56
2022-09-09T13:37:35.679Z,70.61
2022-09-09T13:39:39.890Z,70.74
2022-09-09T13:41:45.848Z,69.67
2022-09-09T13:43:50.188Z,66.66
2022-09-09T13:45:58.971Z,64.85
2022-09-09T13:48:12.957Z,64.51
2022-09-09T13:50:24.074Z,64.24
2022-09-09T13:52:30.158Z,65.25
2022-09-09T13:54:33.752Z,65.14
2022-09-09T13:56:38.128Z,65.01
2022-09-09T13:58:41.515Z,65.34
2022-09-09T14:00:45.730Z,65.54
2022-09-09T14:02:49.175Z,64.72
2022-09-09T14:04:56.238Z,65.09
2022-09-09T14:07:00.480Z,65.27
2022-09-09T14:09:03.945Z,66.05
2022-09-09T14:11:07.455Z,65.62
2022-09-09T14:13:10.748Z,64.82
2022-09-09T14:15:15.397Z,64.07
2022-09-09T14:17:18.904Z,65.83
2022-09-09T14:19:22.623Z,67.20
2022-09-09T14:21:28.147Z,69.04
2022-09-09T14:23:33.342Z,69.27
2022-09-09T14:25:37.279Z,70.07
2022-09-09T14:27:40.681Z,70.13
2022-09-09T14:29:44.529Z,70.49
2022-09-09T14:31:47.915Z,71.90
2022-09-09T14:33:51.988Z,71.97
2022-09-09T14:35:58.331Z,73.81
2022-09-09T14:38:03.374Z,75.74
2022-09-09T14:40:08.447Z,76.57
2022-09-09T14:42:12.829Z,76.36
2022-09-09T14:44:16.969Z,76.81
2022-09-09T14:46:21.878Z,77.51
2022-09-09T14:48:25.269Z,77.16
2022-09-09T14:50:28.693Z,77.32
2022-09-09T14:52:32.381Z,77.74
2022-09-09T14:54:37.259Z,77.74
2022-09-09T14:56:40.978Z,78.90
2022-09-09T14:58:44.756Z,79.27
2022-09-09T15:00:48.059Z,79.77
2022-09-09T15:02:54.273Z,79.31
2022-09-09T15:04:58.961Z,79.70
2022-09-09T15:07:02.654Z,79.65
2022-09-09T15:09:06.855Z,79.28
2022-09-09T15:11:13.047Z,79.19
2022-09-09T15:13:17.871Z,80.21
2022-09-09T15:15:21.692Z,79.64
2022-09-09T15:17:28.113Z,79.44
2022-09-09T15:19:31.430Z,78.88
2022-09-09T15:21:36.522Z,77.12
2022-09-09T15:23:40.266Z,77.89
2022-09-09T15:25:52.897Z,78.03
2022-09-09T15:27:57.878Z,77.82
2022-09-09T15:30:01.822Z,76.73
2022-09-09T15:32:05.409Z,76.63
2022-09-09T15:34:09.841Z,76.86
2022-09-09T15:36:18.364Z,76.53
2022-09-09T15:38:21.746Z,76.49
2022-09-09T15:40:25.265Z,76.55
2022-09-09T15:42:28.752Z,75.44
2022-09-09T15:44:40.699Z,77.09
2022-09-09T15:46:45.407Z,73.62
2022-09-09T15:48:52.318Z,71.95
2022-09-09T15:51:10.969Z,73.71
2022-09-09T15:53:27.672Z,72.95
2022-09-09T15:55:30.999Z,73.05
2022-09-09T15:57:34.333Z,73.76
2022-09-09T15:59:39.024Z,73.63
2022-09-09T16:01:43.197Z,73.98
2022-09-09T16:03:48.085Z,73.53
2022-09-09T16:05:53.127Z,73.30
2022-09-09T16:07:56.510Z,73.59
2022-09-09T16:09:59.813Z,73.55
2022-09-09T16:12:07.277Z,73.78
2022-09-09T16:14:11.983Z,74.14
2022-09-09T16:16:17.944Z,73.76
2022-09-09T16:18:21.569Z,73.11
2022-09-09T16:20:26.421Z,72.01
2022-09-09T16:22:29.780Z,72.46
2022-09-09T16:24:33.099Z,72.24
2022-09-09T16:26:38.591Z,72.37
2022-09-09T16:28:42.584Z,72.99
2022-09-09T16:30:45.950Z,73.16
2022-09-09T16:32:51.472Z,73.07
2022-09-09T16:34:54.816Z,73.26
2022-09-09T16:36:58.159Z,71.89
2022-09-09T16:39:03.253Z,73.04
2022-09-09T16:41:08.313Z,73.12
2022-09-09T16:43:13.336Z,72.75
2022-09-09T16:45:16.805Z,73.55
2022-09-09T16:47:20.345Z,73.52
2022-09-09T16:49:25.071Z,73.47
2022-09-09T16:51:30.854Z,72.96
2022-09-09T16:53:34.541Z,73.27
2022-09-09T16:55:42.227Z,73.08
2022-09-09T16:57:45.588Z,73.29
2022-09-09T16:59:49.144Z,72.89
2022-09-09T17:01:53.848Z,72.22
2022-09-09T17:04:01.126Z,72.37
2022-09-09T17:06:11.343Z,71.76
2022-09-09T17:08:14.700Z,72.05
2022-09-09T17:10:18.355Z,71.74
2022-09-09T17:12:22.182Z,72.23
2022-09-09T17:14:25.811Z,71.67
2022-09-09T17:16:31.771Z,71.62
2022-09-09T17:18:35.179Z,72.34
2022-09-09T17:20:46.412Z,72.55
2022-09-09T17:22:51.927Z,72.43
2022-09-09T17:24:55.679Z,72.73
2022-09-09T17:26:59.081Z,72.98
2022-09-09T17:29:04.010Z,73.00
2022-09-09T17:31:08.845Z,72.96
2022-09-09T17:33:12.320Z,73.37
2022-09-09T17:35:15.856Z,73.27
2022-09-09T17:37:19.157Z,73.44
2022-09-09T17:39:24.254Z,74.33
2022-09-09T17:41:29.992Z,75.30
2022-09-09T17:43:33.834Z,75.99
2022-09-09T17:45:37.196Z,76.92
2022-09-09T17:47:41.071Z,76.75
2022-09-09T17:49:47.466Z,76.99
2022-09-09T17:51:50.893Z,77.10
2022-09-09T17:53:55.736Z,77.16
2022-09-09T17:56:05.957Z,77.60
2022-09-09T17:58:10.041Z,77.06
2022-09-09T18:00:14.084Z,76.62
2022-09-09T18:02:18.009Z,75.94
2022-09-09T18:04:21.493Z,76.59
2022-09-09T18:06:27.518Z,76.24
2022-09-09T18:08:34.731Z,75.40
2022-09-09T18:10:40.807Z,75.08
2022-09-09T18:12:45.817Z,75.01
2022-09-09T18:14:50.626Z,75.13
2022-09-09T18:16:54.712Z,74.51
2022-09-09T18:19:00.135Z,74.83
2022-09-09T18:21:06.466Z,74.85
2022-09-09T18:23:09.847Z,74.73
2022-09-09T18:25:13.276Z,74.94
2022-09-09T18:27:16.585Z,74.79
2022-09-09T18:29:25.112Z,75.02
2022-09-09T18:31:29.754Z,75.03
2022-09-09T18:33:35.919Z,75.22
2022-09-09T18:35:39.620Z,75.73
2022-09-09T18:37:42.964Z,76.21
2022-09-09T18:39:47.036Z,76.63
2022-09-09T18:41:52.432Z,76.73
2022-09-09T18:43:58.600Z,76.96
2022-09-09T18:46:06.771Z,77.48
2022-09-09T18:48:10.274Z,77.68
2022-09-09T18:50:13.585Z,78.18
2022-09-09T18:52:16.894Z,77.90
2022-09-09T18:54:22.647Z,77.53
2022-09-09T18:56:26.265Z,77.68
2022-09-09T18:58:30.295Z,77.74
2022-09-09T19:00:33.945Z,77.37
2022-09-09T19:02:38.902Z,77.55
2022-09-09T19:04:42.559Z,77.56
2022-09-09T19:06:48.150Z,77.44
2022-09-09T19:08:55.196Z,77.35
2022-09-09T19:11:02.468Z,77.29
2022-09-09T19:13:05.982Z,76.78
2022-09-09T19:15:10.268Z,77.48
2022-09-09T19:17:14.227Z,77.08
2022-09-09T19:19:21.041Z,76.83
2022-09-09T19:21:26.625Z,76.45
2022-09-09T19:23:31.209Z,76.73
2022-09-09T19:25:37.411Z,76.51
2022-09-09T19:27:40.753Z,76.33
2022-09-09T19:29:44.508Z,76.19
2022-09-09T19:32:18.710Z,76.93
2022-09-09T19:34:12.458Z,76.61
2022-09-09T19:36:19.107Z,76.56
2022-09-09T19:38:22.734Z,76.59
2022-09-09T19:40:26.913Z,76.65
2022-09-09T19:42:32.027Z,76.80
2022-09-09T19:44:35.359Z,76.30
2022-09-09T19:46:40.767Z,76.53
2022-09-09T19:48:44.397Z,77.07
2022-09-09T19:50:47.722Z,76.87
2022-09-09T19:52:52.834Z,77.08
2022-09-09T19:54:56.424Z,77.43
2022-09-09T19:57:01.112Z,77.09
2022-09-09T19:59:06.379Z,77.19
2022-09-09T20:01:12.278Z,77.31
2022-09-09T20:03:19.496Z,77.23
2022-09-09T20:05:23.743Z,77.20
2022-09-09T20:07:27.122Z,77.59
2022-09-09T20:09:31.832Z,77.62
2022-09-09T20:11:35.860Z,77.61
2022-09-09T20:13:40.446Z,77.26
2022-09-09T20:15:43.751Z,77.25
2022-09-09T20:17:47.098Z,77.83
2022-09-09T20:19:50.426Z,77.95
2022-09-09T20:21:53.723Z,77.78
2022-09-09T20:23:57.045Z,77.55
2022-09-09T20:26:05.190Z,77.68
2022-09-09T20:28:08.491Z,77.72
2022-09-09T20:30:13.387Z,77.43
2022-09-09T20:32:16.708Z,77.19
2022-09-09T20:34:22.929Z,77.46
2022-09-09T20:36:29.019Z,77.31
2022-09-09T20:38:34.077Z,77.44
2022-09-09T20:40:38.128Z,77.84
2022-09-09T20:42:43.299Z,78.00
2022-09-09T20:44:47.014Z,77.68
2022-09-09T20:46:54.211Z,78.17
2022-09-09T20:49:02.273Z,78.35
2022-09-09T20:51:09.765Z,78.50
2022-09-09T20:53:13.201Z,78.04
2022-09-09T20:55:16.611Z,78.13
2022-09-09T20:57:23.071Z,78.23
2022-09-09T20:59:29.642Z,78.68
2022-09-09T21:01:33.094Z,78.72
2022-09-09T21:03:37.967Z,78.25
2022-09-09T21:05:41.401Z,78.37
2022-09-09T21:07:46.244Z,78.21
2022-09-09T21:09:49.602Z,78.41
2022-09-09T21:11:53.978Z,78.05
2022-09-09T21:13:58.203Z,77.79
2022-09-09T21:16:03.928Z,77.85
2022-09-09T21:18:07.563Z,77.59
2022-09-09T21:20:11.047Z,77.65
2022-09-09T21:22:14.367Z,77.87
2022-09-09T21:24:17.913Z,77.79
2022-09-09T21:26:22.314Z,77.46
2022-09-09T21:28:26.967Z,78.11
2022-09-09T21:30:36.972Z,78.13
2022-09-09T21:32:44.358Z,77.67
2022-09-09T21:34:47.669Z,77.66
2022-09-09T21:36:50.988Z,78.04
2022-09-09T21:38:54.266Z,78.00
2022-09-09T21:40:57.715Z,78.19
2022-09-09T21:43:01.099Z,78.51
2022-09-09T21:45:05.451Z,78.37
2022-09-09T21:47:08.948Z,77.94
2022-09-09T21:49:14.066Z,78.11
2022-09-09T21:51:18.868Z,78.60
2022-09-09T21:53:22.395Z,78.31
2022-09-09T21:55:25.696Z,77.87
2022-09-09T21:57:29.130Z,77.23
2022-09-09T21:59:33.808Z,77.59
2022-09-09T22:01:37.233Z,77.90
2022-09-09T22:03:42.374Z,77.56
2022-09-09T22:05:49.708Z,77.64
2022-09-09T22:07:56.868Z,78.15
2022-09-09T22:10:00.839Z,78.09
2022-09-09T22:12:04.598Z,77.93
2022-09-09T22:14:07.919Z,77.60
2022-09-09T22:16:13.726Z,77.27
2022-09-09T22:20:22.816Z,77.21
2022-09-09T22:22:27.869Z,77.38
2022-09-09T22:24:31.122Z,77.59
2022-09-09T22:26:36.381Z,77.41
2022-09-09T22:28:39.784Z,77.23
2022-09-09T22:30:43.208Z,77.28
2022-09-09T22:32:46.750Z,77.24
2022-09-09T22:34:51.172Z,77.70
2022-09-09T22:36:55.381Z,77.31
2022-09-09T22:39:00.118Z,77.73
2022-09-09T22:41:04.367Z,77.44
2022-09-09T22:43:12.570Z,77.37
2022-09-09T22:45:16.803Z,77.41
2022-09-09T22:47:20.260Z,77.46
2022-09-09T22:49:24.454Z,78.17
2022-09-09T22:51:27.875Z,77.88
2022-09-09T22:53:32.628Z,77.50
2022-09-09T22:55:37.351Z,77.37
2022-09-09T22:57:42.080Z,77.93
2022-09-09T22:59:45.747Z,78.25
2022-09-09T23:01:49.430Z,77.67
2022-09-09T23:03:53.085Z,77.87
2022-09-09T23:05:57.500Z,78.28
2022-09-09T23:08:00.891Z,77.60
2022-09-09T23:10:06.110Z,78.21
2022-09-09T23:12:10.920Z,77.76
2022-09-09T23:14:14.765Z,78.07
2022-09-09T23:16:20.295Z,77.82
2022-09-09T23:18:26.808Z,77.67
2022-09-09T23:20:30.274Z,77.62
2022-09-09T23:22:35.283Z,77.52
2022-09-09T23:24:38.785Z,77.71
2022-09-09T23:26:43.392Z,77.49
2022-09-09T23:28:48.790Z,77.26
2022-09-09T23:30:52.124Z,77.57
2022-09-09T23:32:55.834Z,77.62
2022-09-09T23:34:59.292Z,77.60
2022-09-09T23:37:02.604Z,77.00
2022-09-09T23:39:07.654Z,77.08
2022-09-09T23:41:13.245Z,77.28
2022-09-09T23:43:16.641Z,77.34
2022-09-09T23:45:21.335Z,76.86
2022-09-09T23:47:27.577Z,76.55
2022-09-09T23:49:30.908Z,76.30
2022-09-09T23:51:34.807Z,75.85
2022-09-09T23:53:38.716Z,75.49
2022-09-09T23:55:42.642Z,75.74
2022-09-09T23:57:45.950Z,75.76
2022-09-09T23:59:49.255Z,75.74
